Time;durP1;ratioP1;P1;durP2;ratioP2;P2;SDS_P1;SDS_P2;PMS_P1;PMS_P2;Temp;Humidity;BMP_temperature;BMP_pressure;BME280_temperature;BME280_humidity;BME280_pressure;Samples;Min_cycle;Max_cycle;Signal;HPM_P1;HPM_P2
2021/12/20 00:00:19;;;;;;;27.30;4.93;;;6.10;99.90;;;;;;5011611;28;20048;-82
2021/12/20 00:02:49;;;;;;;37.38;5.93;;;6.40;99.90;;;;;;5034377;28;20086;-82
2021/12/20 00:05:15;;;;;;;27.45;4.97;;;7.50;99.90;;;;;;5016428;28;20121;-82
2021/12/20 00:07:41;;;;;;;26.17;4.50;;;6.10;99.90;;;;;;5030253;28;20048;-82
2021/12/20 00:10:07;;;;;;;30.08;4.60;;;6.20;99.90;;;;;;5032282;28;20032;-82
2021/12/20 00:12:33;;;;;;;24.15;5.70;;;6.10;99.90;;;;;;5045975;28;20033;-82
2021/12/20 00:14:59;;;;;;;32.78;5.30;;;6.20;99.90;;;;;;5037806;28;20030;-82
2021/12/20 00:17:25;;;;;;;29.92;5.45;;;6.10;99.90;;;;;;4998572;28;20045;-81
2021/12/20 00:19:52;;;;;;;33.97;5.32;;;6.00;99.90;;;;;;5030264;28;20029;-81
2021/12/20 00:22:18;;;;;;;27.38;5.10;;;6.50;99.90;;;;;;5032543;28;20037;-81
2021/12/20 00:24:43;;;;;;;20.48;4.53;;;6.00;99.90;;;;;;5041560;28;20103;-81
2021/12/20 00:27:11;;;;;;;25.73;5.47;;;6.00;99.90;;;;;;4986122;28;20496;-82
2021/12/20 00:29:37;;;;;;;18.67;5.00;;;6.20;99.90;;;;;;5025770;28;20500;-82
2021/12/20 00:32:03;;;;;;;24.65;4.68;;;6.00;99.90;;;;;;5034353;28;20040;-82
2021/12/20 00:34:29;;;;;;;20.67;4.90;;;6.00;99.90;;;;;;5012881;28;20033;-82
2021/12/20 00:37:03;;;;;;;29.05;5.22;;;5.90;99.90;;;;;;5037173;28;20044;-82
2021/12/20 00:42:14;;;;;;;29.38;5.40;;;5.90;99.90;;;;;;5040273;28;20041;-82
2021/12/20 00:44:40;;;;;;;24.25;5.03;;;5.90;99.90;;;;;;5004241;28;20037;-83
2021/12/20 00:47:06;;;;;;;28.05;5.68;;;5.90;99.90;;;;;;5017976;28;20390;-82
2021/12/20 00:49:32;;;;;;;29.50;5.63;;;5.80;99.90;;;;;;5033222;28;20067;-81
2021/12/20 00:51:57;;;;;;;23.65;5.22;;;5.80;99.90;;;;;;5013809;28;20044;-82
2021/12/20 00:54:24;;;;;;;36.15;5.55;;;5.80;99.90;;;;;;5017246;28;20068;-82
2021/12/20 00:56:50;;;;;;;27.08;5.10;;;5.70;99.90;;;;;;5050868;28;20320;-82
2021/12/20 00:59:16;;;;;;;24.10;5.43;;;5.80;99.90;;;;;;5020894;28;20041;-82
2021/12/20 01:01:42;;;;;;;23.60;4.90;;;5.70;99.90;;;;;;5039986;28;20552;-82
2021/12/20 01:04:08;;;;;;;31.30;6.55;;;5.80;99.90;;;;;;4998418;28;20120;-82
2021/12/20 01:06:34;;;;;;;26.27;4.97;;;5.60;99.90;;;;;;5017412;28;20064;-82
2021/12/20 01:09:01;;;;;;;25.63;5.25;;;5.60;99.90;;;;;;5035236;28;20324;-81
2021/12/20 01:11:28;;;;;;;18.83;4.53;;;5.50;99.90;;;;;;5021655;28;20079;-81
2021/12/20 01:13:55;;;;;;;28.48;5.85;;;5.50;99.90;;;;;;5052769;28;20029;-81
2021/12/20 01:16:30;;;;;;;18.70;4.10;;;5.80;99.90;;;;;;5032802;28;20136;-82
2021/12/20 01:18:57;;;;;;;20.02;4.30;;;5.40;99.90;;;;;;5015529;28;20049;-82
2021/12/20 01:21:23;;;;;;;19.45;4.18;;;5.40;99.90;;;;;;5067523;28;20039;-82
2021/12/20 01:23:49;;;;;;;29.33;4.63;;;5.30;99.90;;;;;;5043702;28;20037;-82
2021/12/20 01:26:14;;;;;;;19.35;4.55;;;5.20;99.90;;;;;;5031538;28;20044;-81
2021/12/20 01:28:43;;;;;;;22.38;5.40;;;5.10;99.90;;;;;;5046924;28;20041;-81
2021/12/20 01:31:09;;;;;;;25.05;4.68;;;5.00;99.90;;;;;;5041810;28;20116;-81
2021/12/20 01:33:35;;;;;;;22.77;4.47;;;5.10;99.90;;;;;;5015430;28;20039;-81
2021/12/20 01:36:01;;;;;;;23.58;5.20;;;5.40;99.90;;;;;;5021452;28;20045;-81
2021/12/20 01:38:27;;;;;;;19.52;4.80;;;5.60;99.90;;;;;;5049134;28;20048;-81
2021/12/20 01:40:53;;;;;;;25.15;4.80;;;5.10;99.90;;;;;;5052563;28;20052;-81
2021/12/20 01:43:19;;;;;;;23.00;5.40;;;5.00;99.90;;;;;;5018702;28;20416;-81
2021/12/20 01:45:48;;;;;;;24.05;5.47;;;5.50;99.90;;;;;;5032690;28;20041;-82
2021/12/20 01:48:16;;;;;;;23.23;4.93;;;6.10;99.90;;;;;;5027844;28;20098;-82
2021/12/20 01:53:11;;;;;;;28.45;4.80;;;;;;;;;;5063397;28;20121;-82
2021/12/20 01:55:37;;;;;;;17.15;3.88;;;;;;;;;;5048453;28;20036;-82
2021/12/20 01:58:03;;;;;;;24.63;3.80;;;;;;;;;;5015992;28;20079;-82
2021/12/20 02:00:30;;;;;;;25.90;4.95;;;;;;;;;;5062813;28;20073;-81
2021/12/20 02:03:01;;;;;;;24.00;4.35;;;;;;;;;;5047200;28;20033;-81
2021/12/20 02:05:47;;;;;;;20.50;4.10;;;;;;;;;;5027996;28;20441;-81
2021/12/20 02:10:44;;;;;;;21.77;3.85;;;;;;;;;;5064794;28;20043;-82
2021/12/20 02:13:12;;;;;;;19.05;4.15;;;;;;;;;;5036015;28;20497;-82
2021/12/20 02:15:38;;;;;;;20.45;4.43;;;;;;;;;;5046876;28;20037;-82
2021/12/20 02:18:04;;;;;;;21.88;3.55;;;;;;;;;;5028323;28;20044;-82
2021/12/20 02:20:31;;;;;;;21.33;5.10;;;;;;;;;;5062404;28;20041;-83
2021/12/20 02:22:58;;;;;;;26.00;3.63;;;;;;;;;;5038864;28;20046;-82
2021/12/20 02:25:25;;;;;;;21.73;4.03;;;;;;;;;;5024748;28;20038;-82
2021/12/20 02:27:51;;;;;;;13.23;3.58;;;;;;;;;;5046426;28;20033;-83
2021/12/20 02:38:27;;;;;;;16.08;4.05;;;;;;;;;;5061191;28;20128;-82
2021/12/20 02:40:58;;;;;;;20.80;3.22;;;;;;;;;;5054627;28;20037;-81
2021/12/20 02:43:27;;;;;;;14.60;2.83;;;;;;;;;;5011996;28;20392;-82
2021/12/20 02:45:57;;;;;;;15.00;3.17;;;;;;;;;;4997196;28;20504;-81
2021/12/20 02:48:23;;;;;;;20.27;3.70;;;;;;;;;;5000244;28;20087;-81
2021/12/20 02:50:53;;;;;;;17.70;5.00;;;4.60;99.90;;;;;;5037857;28;20485;-81
2021/12/20 02:53:19;;;;;;;21.95;3.22;;;5.00;99.90;;;;;;5040483;28;20048;-81
2021/12/20 02:55:45;;;;;;;12.98;3.13;;;;;;;;;;5054614;28;20037;-81
2021/12/20 02:58:11;;;;;;;17.38;3.17;;;;;;;;;;5012790;28;20138;-81
2021/12/20 03:00:37;;;;;;;13.82;2.65;;;;;;;;;;5054235;28;20040;-81
2021/12/20 03:03:03;;;;;;;15.10;3.42;;;;;;;;;;5050954;28;20052;-81
2021/12/20 03:05:29;;;;;;;17.52;3.20;;;;;;;;;;5031335;28;20037;-82
2021/12/20 03:07:56;;;;;;;16.45;2.53;;;;;;;;;;5011079;28;20079;-82
2021/12/20 03:10:24;;;;;;;18.65;2.70;;;;;;;;;;5056465;28;20041;-81
2021/12/20 03:12:50;;;;;;;17.40;2.45;;;;;;;;;;5034483;28;20033;-81
2021/12/20 03:15:22;;;;;;;17.30;2.92;;;;;;;;;;5043144;28;20036;-81
2021/12/20 03:17:48;;;;;;;15.50;3.78;;;;;;;;;;5029953;28;20061;-81
2021/12/20 03:20:14;;;;;;;11.55;2.17;;;4.00;99.90;;;;;;5062030;28;20278;-81
2021/12/20 03:22:44;;;;;;;17.55;2.45;;;3.80;99.90;;;;;;5050606;28;20041;-81
2021/12/20 03:25:10;;;;;;;15.95;4.05;;;3.90;99.90;;;;;;5026415;28;20045;-81
2021/12/20 03:27:36;;;;;;;13.20;2.38;;;;;;;;;;5034347;28;20040;-81
2021/12/20 03:30:04;;;;;;;16.23;2.47;;;;;;;;;;5032005;28;20055;-81
2021/12/20 03:32:30;;;;;;;12.32;2.35;;;;;;;;;;5030890;28;20086;-81
2021/12/20 03:34:56;;;;;;;14.10;2.75;;;;;;;;;;5016394;28;20119;-81
2021/12/20 03:37:22;;;;;;;10.65;2.35;;;;;;;;;;5035829;28;20458;-81
2021/12/20 03:39:48;;;;;;;9.85;2.65;;;;;;;;;;5031811;28;20045;-82
2021/12/20 03:42:14;;;;;;;18.25;3.67;;;;;;;;;;5032245;28;20060;-81
2021/12/20 03:44:44;;;;;;;13.35;3.00;;;;;;;;;;5033260;28;20057;-81
2021/12/20 03:47:12;;;;;;;14.80;2.05;;;3.40;99.90;;;;;;5035573;28;20167;-82
2021/12/20 03:49:40;;;;;;;12.43;2.50;;;3.40;99.90;;;;;;5050565;28;20495;-82
2021/12/20 03:52:07;;;;;;;14.15;2.60;;;3.50;99.90;;;;;;5033482;28;20047;-82
2021/12/20 03:54:33;;;;;;;8.63;2.30;;;3.20;99.90;;;;;;4999719;28;20037;-81
2021/12/20 03:56:59;;;;;;;14.68;4.28;;;3.20;99.90;;;;;;5042579;28;20041;-82
2021/12/20 03:59:27;;;;;;;15.70;3.03;;;3.40;99.90;;;;;;5032254;28;20047;-82
2021/12/20 04:01:53;;;;;;;10.82;3.08;;;3.90;99.90;;;;;;5033622;28;20044;-82
2021/12/20 04:04:19;;;;;;;16.00;3.20;;;3.20;99.90;;;;;;5024194;28;20484;-82
2021/12/20 04:06:45;;;;;;;13.10;3.10;;;;;;;;;;5034716;28;20041;-82
2021/12/20 04:09:10;;;;;;;12.82;3.08;;;2.90;99.90;;;;;;5064304;28;20037;-82
2021/12/20 04:11:36;;;;;;;14.25;3.47;;;3.00;99.90;;;;;;5012699;28;20507;-81
2021/12/20 04:14:02;;;;;;;16.60;2.20;;;2.80;99.90;;;;;;5017405;28;20037;-81
2021/12/20 04:16:29;;;;;;;8.50;2.25;;;2.70;99.90;;;;;;5006950;28;20029;-81
2021/12/20 04:18:55;;;;;;;20.33;2.80;;;2.70;99.90;;;;;;5034179;28;20051;-81
2021/12/20 04:21:21;;;;;;;11.85;2.65;;;2.90;99.90;;;;;;5065939;28;20117;-81
2021/12/20 04:23:47;;;;;;;11.18;2.75;;;2.60;99.90;;;;;;5039295;28;20083;-82
2021/12/20 04:26:13;;;;;;;13.68;2.72;;;2.40;99.90;;;;;;5055089;28;20033;-81
2021/12/20 04:28:40;;;;;;;14.35;2.60;;;3.10;99.90;;;;;;5019044;28;20134;-81
2021/12/20 04:31:06;;;;;;;14.32;2.40;;;2.90;99.90;;;;;;5072013;28;20048;-81
2021/12/20 04:33:32;;;;;;;14.95;2.30;;;2.60;99.90;;;;;;5031076;28;20078;-81
2021/12/20 04:35:57;;;;;;;11.45;2.67;;;2.60;99.90;;;;;;5019507;28;20033;-81
2021/12/20 04:38:26;;;;;;;23.60;3.30;;;2.50;99.90;;;;;;5038183;28;20088;-81
2021/12/20 04:40:52;;;;;;;15.85;2.60;;;2.30;99.90;;;;;;5018049;28;20515;-81
2021/12/20 04:43:17;;;;;;;10.93;2.85;;;2.30;99.90;;;;;;5054819;28;20084;-81
2021/12/20 04:45:43;;;;;;;11.13;2.75;;;2.30;99.90;;;;;;5031287;28;20067;-81
2021/12/20 04:48:09;;;;;;;18.23;4.20;;;2.30;99.90;;;;;;5018369;28;20099;-81
2021/12/20 04:50:35;;;;;;;21.45;2.85;;;2.20;99.90;;;;;;5010618;28;20056;-82
2021/12/20 04:53:01;;;;;;;14.15;2.83;;;2.10;99.90;;;;;;5012654;28;20374;-81
2021/12/20 04:55:28;;;;;;;12.48;2.45;;;2.50;99.90;;;;;;5006063;28;20037;-81
2021/12/20 04:57:55;;;;;;;9.93;2.67;;;2.20;99.90;;;;;;5050620;28;20044;-82
2021/12/20 05:00:25;;;;;;;12.38;2.65;;;2.10;99.90;;;;;;5045177;28;20049;-82
2021/12/20 05:02:51;;;;;;;19.38;4.38;;;2.10;99.90;;;;;;5034038;28;20048;-82
2021/12/20 05:05:18;;;;;;;17.13;2.80;;;2.40;99.90;;;;;;5046685;28;20029;-81
2021/12/20 05:07:45;;;;;;;13.68;2.88;;;1.90;99.90;;;;;;5066742;28;20041;-81
2021/12/20 05:10:13;;;;;;;15.63;2.55;;;1.90;99.90;;;;;;5034125;28;20049;-82
2021/12/20 05:12:40;;;;;;;15.25;3.60;;;2.20;99.90;;;;;;5034066;28;20045;-81
2021/12/20 05:15:06;;;;;;;13.43;3.67;;;2.10;99.90;;;;;;5058724;28;20064;-82
2021/12/20 05:17:32;;;;;;;11.73;2.22;;;2.10;99.90;;;;;;5010071;28;20334;-82
2021/12/20 05:19:58;;;;;;;16.92;2.97;;;;;;;;;;5034319;28;20543;-81
2021/12/20 05:22:24;;;;;;;11.40;2.40;;;1.90;99.90;;;;;;5049145;28;20127;-81
2021/12/20 05:24:50;;;;;;;13.55;3.25;;;1.80;99.90;;;;;;5048404;28;20113;-81
2021/12/20 05:27:16;;;;;;;12.63;3.42;;;1.90;99.90;;;;;;5016131;28;20040;-81
2021/12/20 05:29:41;;;;;;;14.48;2.80;;;1.90;99.90;;;;;;5036536;28;20080;-81
2021/12/20 05:32:08;;;;;;;13.93;2.90;;;1.90;99.90;;;;;;4994495;28;20043;-82
2021/12/20 05:34:35;;;;;;;14.43;3.53;;;1.80;99.90;;;;;;5024646;28;20463;-81
2021/12/20 05:37:00;;;;;;;15.10;3.88;;;1.80;99.90;;;;;;5018200;28;20048;-81
2021/12/20 05:39:26;;;;;;;15.13;4.85;;;1.80;99.90;;;;;;5028300;28;20378;-81
2021/12/20 05:41:52;;;;;;;15.40;4.90;;;1.70;99.90;;;;;;5049863;28;20049;-81
2021/12/20 05:44:18;;;;;;;17.65;7.25;;;1.70;99.90;;;;;;5045569;28;20041;-81
2021/12/20 05:46:44;;;;;;;28.23;10.85;;;1.70;99.90;;;;;;5030936;28;20048;-81
2021/12/20 05:49:10;;;;;;;18.13;8.40;;;1.70;99.90;;;;;;5017964;28;20450;-81
2021/12/20 05:51:35;;;;;;;20.80;7.80;;;1.70;99.90;;;;;;5043317;28;20041;-81
2021/12/20 05:54:01;;;;;;;23.10;8.77;;;1.90;99.90;;;;;;5032441;28;20056;-81
2021/12/20 05:56:27;;;;;;;20.48;7.07;;;1.60;99.90;;;;;;5027400;28;20045;-81
2021/12/20 05:58:53;;;;;;;18.55;7.88;;;1.60;99.90;;;;;;5046941;28;20447;-81
2021/12/20 06:01:19;;;;;;;19.80;5.95;;;1.60;99.90;;;;;;5029066;28;20041;-81
2021/12/20 06:03:44;;;;;;;15.57;4.90;;;1.50;99.90;;;;;;5032590;28;20120;-81
2021/12/20 06:06:12;;;;;;;16.38;5.45;;;1.50;99.90;;;;;;5034362;28;20041;-82
2021/12/20 06:08:37;;;;;;;12.85;4.63;;;1.50;99.90;;;;;;5024805;28;20048;-81
2021/12/20 06:11:03;;;;;;;13.55;4.63;;;1.40;99.90;;;;;;5025262;28;20037;-81
2021/12/20 06:13:29;;;;;;;12.80;4.63;;;1.40;99.90;;;;;;5046636;28;20441;-82
2021/12/20 06:15:54;;;;;;;12.95;3.83;;;1.40;99.90;;;;;;5030133;28;20701;-81
2021/12/20 06:18:20;;;;;;;13.10;3.80;;;1.40;99.90;;;;;;5063759;28;20048;-81
2021/12/20 06:20:46;;;;;;;14.18;3.80;;;1.30;99.90;;;;;;5020053;28;20037;-81
2021/12/20 06:23:12;;;;;;;18.83;5.07;;;1.30;99.90;;;;;;5032262;28;20623;-81
2021/12/20 06:25:38;;;;;;;20.10;4.20;;;1.90;99.90;;;;;;5038986;28;20056;-81
2021/12/20 06:28:04;;;;;;;13.48;3.97;;;1.30;99.90;;;;;;5044840;28;20415;-81
2021/12/20 06:30:30;;;;;;;14.18;3.60;;;1.20;99.90;;;;;;5032223;28;20517;-81
2021/12/20 06:32:56;;;;;;;17.60;4.20;;;1.20;99.90;;;;;;5013158;28;20030;-80
2021/12/20 06:35:21;;;;;;;14.13;3.75;;;1.10;99.90;;;;;;5023903;28;20505;-80
2021/12/20 06:37:58;;;;;;;14.05;4.20;;;0.80;99.90;;;;;;4999466;28;20055;-81
2021/12/20 06:40:24;;;;;;;15.98;3.83;;;2.70;99.90;;;;;;5015975;28;20041;-81
2021/12/20 06:42:50;;;;;;;17.50;4.47;;;;;;;;;;5006004;28;20092;-81
2021/12/20 06:45:17;;;;;;;15.25;4.82;;;;;;;;;;5028560;28;20048;-77
2021/12/20 06:47:43;;;;;;;15.77;4.72;;;;;;;;;;5016627;28;20037;-81
2021/12/20 06:50:09;;;;;;;19.98;5.70;;;1.10;99.90;;;;;;4992692;28;20033;-81
2021/12/20 06:52:34;;;;;;;16.17;5.22;;;1.20;99.90;;;;;;4980412;28;20530;-81
2021/12/20 06:55:00;;;;;;;30.30;6.50;;;1.50;99.90;;;;;;5006023;28;20059;-81
2021/12/20 06:57:26;;;;;;;17.60;6.22;;;1.30;99.90;;;;;;5002159;28;20076;-80
2021/12/20 06:59:52;;;;;;;21.63;5.30;;;1.60;99.90;;;;;;5021928;28;20037;-80
2021/12/20 07:02:18;;;;;;;18.13;4.88;;;1.40;99.90;;;;;;4983208;28;20072;-81
2021/12/20 07:04:44;;;;;;;17.15;4.22;;;1.30;99.90;;;;;;4981217;28;20038;-80
2021/12/20 07:07:09;;;;;;;15.25;3.85;;;1.90;99.90;;;;;;5020679;28;20708;-80
2021/12/20 07:09:35;;;;;;;13.38;3.60;;;1.20;99.90;;;;;;4985716;28;20034;-80
2021/12/20 07:12:03;;;;;;;15.57;3.58;;;1.80;99.90;;;;;;4996569;28;20038;-80
2021/12/20 07:14:29;;;;;;;13.43;3.50;;;0.90;99.90;;;;;;4976983;28;20047;-80
2021/12/20 07:16:55;;;;;;;13.48;3.33;;;1.00;99.90;;;;;;4998244;28;20100;-80
2021/12/20 07:19:21;;;;;;;17.40;3.65;;;0.90;99.90;;;;;;4995153;28;20041;-80
2021/12/20 07:21:47;;;;;;;14.27;3.53;;;0.90;99.90;;;;;;5017911;28;20042;-80
2021/12/20 07:24:13;;;;;;;12.52;3.97;;;1.00;99.90;;;;;;4998697;28;20044;-80
2021/12/20 07:26:42;;;;;;;19.33;4.38;;;0.70;99.90;;;;;;4981402;28;20056;-80
2021/12/20 07:29:07;;;;;;;14.20;4.45;;;1.20;99.90;;;;;;5002048;28;20042;-81
2021/12/20 07:31:33;;;;;;;14.40;4.82;;;1.10;99.90;;;;;;4995178;28;20048;-80
2021/12/20 07:33:59;;;;;;;15.70;4.50;;;0.40;99.90;;;;;;4980529;28;20072;-80
2021/12/20 07:36:25;;;;;;;17.70;4.63;;;1.00;99.90;;;;;;5004069;28;20048;-81
2021/12/20 07:38:51;;;;;;;13.65;4.43;;;1.50;99.90;;;;;;5004593;28;20040;-80
2021/12/20 07:41:21;;;;;;;16.80;4.63;;;1.80;99.90;;;;;;4987456;28;20354;-80
2021/12/20 07:43:48;;;;;;;21.17;4.10;;;1.10;99.90;;;;;;4986539;28;20045;-80
2021/12/20 07:46:15;;;;;;;15.27;4.47;;;;;;;;;;5022085;28;20087;-80
2021/12/20 07:48:41;;;;;;;23.80;7.82;;;;;;;;;;5037496;28;20481;-79
2021/12/20 07:51:08;;;;;;;31.63;8.60;;;;;;;;;;5035460;28;20405;-79
2021/12/20 07:53:34;;;;;;;18.55;7.45;;;;;;;;;;5028533;28;20175;-80
2021/12/20 07:56:00;;;;;;;19.70;8.68;;;;;;;;;;4994274;28;20041;-80
2021/12/20 07:58:26;;;;;;;21.98;8.80;;;;;;;;;;5000840;28;20041;-80
2021/12/20 08:00:52;;;;;;;29.42;12.13;;;;;;;;;;5046197;28;20095;-80
2021/12/20 08:03:18;;;;;;;26.27;12.43;;;;;;;;;;5031319;28;20064;-80
2021/12/20 08:05:45;;;;;;;32.85;15.02;;;;;;;;;;5020833;28;20067;-80
2021/12/20 08:08:11;;;;;;;29.60;13.60;;;;;;;;;;5073161;28;20040;-80
2021/12/20 08:10:37;;;;;;;35.05;13.63;;;;;;;;;;5003711;28;20045;-80
2021/12/20 08:13:03;;;;;;;35.47;12.00;;;;;;;;;;5053899;28;20132;-79
2021/12/20 08:15:30;;;;;;;36.10;13.20;;;;;;;;;;5035612;28;20036;-79
2021/12/20 08:17:56;;;;;;;30.05;14.88;;;;;;;;;;5067677;28;20370;-80
2021/12/20 08:20:23;;;;;;;27.48;13.20;;;;;;;;;;5020593;28;20091;-79
2021/12/20 08:22:49;;;;;;;30.92;13.43;;;;;;;;;;5015808;28;20049;-80
2021/12/20 08:25:16;;;;;;;26.77;13.57;;;;;;;;;;5010593;28;20040;-80
2021/12/20 08:27:44;;;;;;;49.58;21.98;;;;;;;;;;5074648;28;20076;-80
2021/12/20 08:30:10;;;;;;;38.72;18.55;;;;;;;;;;5014682;28;20032;-80
2021/12/20 08:32:37;;;;;;;42.85;20.30;;;;;;;;;;5012606;28;20040;-80
2021/12/20 08:35:04;;;;;;;36.67;16.92;;;;;;;;;;5048896;28;20064;-80
2021/12/20 08:37:30;;;;;;;35.80;14.10;;;;;;;;;;5057054;28;20075;-79
2021/12/20 08:39:56;;;;;;;31.25;14.88;;;;;;;;;;5044102;28;20040;-79
2021/12/20 08:42:23;;;;;;;38.30;15.85;;;;;;;;;;5053067;28;20091;-79
2021/12/20 08:44:49;;;;;;;33.05;13.38;;;;;;;;;;5036316;28;20041;-81
2021/12/20 08:47:16;;;;;;;38.58;15.50;;;;;;;;;;5038908;28;20087;-80
2021/12/20 08:49:42;;;;;;;24.73;13.05;;;;;;;;;;5037925;28;20051;-80
2021/12/20 08:52:10;;;;;;;33.03;14.05;;;;;;;;;;5025227;28;20397;-79
2021/12/20 08:54:36;;;;;;;34.13;13.57;;;;;;;;;;5024605;28;20083;-80
2021/12/20 08:57:03;;;;;;;31.08;13.10;;;;;;;;;;5040994;28;20408;-79
2021/12/20 08:59:29;;;;;;;26.13;12.93;;;;;;;;;;5023107;28;20037;-80
2021/12/20 09:01:55;;;;;;;28.85;12.63;;;;;;;;;;5069075;28;20041;-79
2021/12/20 09:04:21;;;;;;;32.05;14.60;;;;;;;;;;5055978;28;20064;-80
2021/12/20 09:06:49;;;;;;;29.45;13.38;;;;;;;;;;5067239;28;20378;-81
2021/12/20 09:09:16;;;;;;;30.45;13.82;;;1.30;99.90;;;;;;5050785;28;20060;-80
2021/12/20 09:11:42;;;;;;;29.92;11.70;;;1.50;99.90;;;;;;4989167;28;20580;-80
2021/12/20 09:14:08;;;;;;;23.63;11.65;;;1.50;99.90;;;;;;5042911;28;20045;-80
2021/12/20 09:16:34;;;;;;;23.85;10.68;;;1.60;99.90;;;;;;5004686;28;20041;-80
2021/12/20 09:19:00;;;;;;;32.45;11.25;;;1.90;99.90;;;;;;5037290;28;20041;-80
2021/12/20 09:21:26;;;;;;;30.73;10.40;;;1.80;99.90;;;;;;5026168;28;20033;-81
2021/12/20 09:23:52;;;;;;;24.42;9.00;;;2.40;99.90;;;;;;5046028;28;20116;-80
2021/12/20 09:26:18;;;;;;;19.92;8.18;;;1.80;99.90;;;;;;5052628;28;20115;-81
2021/12/20 09:28:45;;;;;;;19.40;7.85;;;;;;;;;;5052223;28;20037;-81
2021/12/20 09:31:10;;;;;;;18.42;9.43;;;2.10;99.90;;;;;;5029944;28;20133;-78
2021/12/20 09:33:36;;;;;;;21.00;7.40;;;2.20;99.90;;;;;;5059252;28;20382;-79
2021/12/20 09:36:03;;;;;;;22.77;8.07;;;2.30;99.90;;;;;;5012260;28;20044;-80
2021/12/20 09:38:31;;;;;;;20.10;8.05;;;2.60;99.90;;;;;;5053588;28;20436;-77
2021/12/20 09:43:29;;;;;;;22.63;7.88;;;;;;;;;;5048826;28;20046;-78
2021/12/20 09:45:56;;;;;;;26.80;11.82;;;;;;;;;;5021890;28;20127;-79
2021/12/20 09:48:22;;;;;;;28.17;10.90;;;;;;;;;;5034580;28;20141;-79
2021/12/20 09:50:48;;;;;;;27.48;9.82;;;;;;;;;;5029191;28;20140;-79
2021/12/20 09:53:14;;;;;;;22.15;7.95;;;2.70;99.90;;;;;;5015604;28;20064;-78
2021/12/20 09:55:46;;;;;;;20.92;7.65;;;2.70;99.90;;;;;;5018454;28;20080;-78
2021/12/20 09:58:12;;;;;;;27.60;8.18;;;3.00;99.90;;;;;;5004324;28;20346;-78
2021/12/20 10:00:37;;;;;;;19.90;6.53;;;2.90;99.90;;;;;;5032021;28;20409;-77
2021/12/20 10:03:04;;;;;;;19.45;5.97;;;3.10;99.90;;;;;;5017049;28;20665;-78
2021/12/20 10:05:31;;;;;;;17.17;5.60;;;2.90;99.90;;;;;;4991165;28;20042;-78
2021/12/20 10:07:58;;;;;;;23.50;6.60;;;3.80;99.90;;;;;;4999922;28;20088;-78
2021/12/20 10:10:44;;;;;;;33.88;6.82;;;3.10;99.90;;;;;;5005719;28;20504;-78
2021/12/20 10:13:21;;;;;;;18.02;4.95;;;2.90;99.90;;;;;;5037040;28;20037;-78
2021/12/20 10:15:48;;;;;;;19.27;6.65;;;3.80;99.90;;;;;;5035328;28;20037;-77
2021/12/20 10:18:14;;;;;;;24.50;4.90;;;3.30;99.90;;;;;;5028639;28;20452;-78
2021/12/20 10:20:41;;;;;;;14.73;4.70;;;;;;;;;;5020005;28;20536;-78
2021/12/20 10:23:13;;;;;;;17.67;4.93;;;;;;;;;;5014146;28;20056;-78
2021/12/20 10:25:39;;;;;;;22.73;5.38;;;;;;;;;;5043086;28;20068;-78
2021/12/20 10:28:07;;;;;;;22.85;5.47;;;;;;;;;;5015096;28;20034;-78
2021/12/20 10:30:35;;;;;;;23.63;5.03;;;;;;;;;;5050767;28;20045;-78
2021/12/20 10:33:04;;;;;;;23.38;5.65;;;;;;;;;;5016483;28;20486;-78
2021/12/20 10:35:32;;;;;;;24.38;4.82;;;;;;;;;;5032231;28;20033;-79
2021/12/20 10:37:59;;;;;;;18.35;4.25;;;;;;;;;;5032036;28;20127;-77
2021/12/20 10:40:26;;;;;;;18.05;4.32;;;3.50;99.90;;;;;;5048158;28;20040;-78
2021/12/20 10:42:56;;;;;;;17.05;3.97;;;3.80;99.90;;;;;;5013357;28;20138;-78
2021/12/20 10:45:24;;;;;;;21.37;5.27;;;4.60;99.90;;;;;;5021285;28;20053;-78
2021/12/20 10:47:50;;;;;;;16.45;4.03;;;4.00;99.90;;;;;;5010722;28;20666;-78
2021/12/20 10:50:28;;;;;;;15.93;3.80;;;;;;;;;;4995242;28;20539;-80
2021/12/20 10:53:10;;;;;;;17.10;4.13;;;;;;;;;;4994148;28;20045;-77
2021/12/20 10:55:38;;;;;;;24.30;5.50;;;4.10;99.90;;;;;;5011297;28;20482;-78
2021/12/20 10:58:29;;;;;;;18.98;6.18;;;4.90;99.90;;;;;;5010770;28;20048;-80
2021/12/20 11:01:15;;;;;;;14.68;5.25;;;4.10;99.90;;;;;;5008885;28;20053;-80
2021/12/20 11:03:43;;;;;;;17.52;5.25;;;5.10;99.90;;;;;;5024364;28;20045;-79
2021/12/20 11:09:05;;;;;;;25.08;7.22;;;4.80;99.90;;;;;;5043876;28;20060;-78
2021/12/20 11:11:40;;;;;;;14.60;4.93;;;4.70;99.90;;;;;;5018026;28;20045;-77
2021/12/20 11:14:07;;;;;;;21.40;5.55;;;4.40;99.90;;;;;;5026877;28;20638;-77
2021/12/20 11:16:35;;;;;;;20.02;6.00;;;;;;;;;;5022588;28;20045;-77
2021/12/20 11:19:07;;;;;;;14.90;5.68;;;;;;;;;;5040805;28;20033;-78
2021/12/20 11:21:44;;;;;;;14.18;5.03;;;4.90;99.90;;;;;;4989051;28;20494;-78
2021/12/20 11:24:12;;;;;;;17.90;5.03;;;4.90;99.90;;;;;;5002765;28;20038;-77
2021/12/20 11:26:39;;;;;;;24.83;5.15;;;4.90;99.90;;;;;;5024057;28;20405;-79
2021/12/20 11:29:05;;;;;;;20.02;6.03;;;4.70;99.90;;;;;;5013700;28;20037;-78
2021/12/20 11:31:32;;;;;;;19.83;5.00;;;4.80;99.90;;;;;;5025629;28;20510;-78
2021/12/20 11:34:00;;;;;;;16.10;4.78;;;5.10;99.90;;;;;;5011878;28;20445;-79
2021/12/20 11:36:26;;;;;;;22.42;5.07;;;6.00;99.90;;;;;;4980212;28;20042;-79
2021/12/20 11:38:53;;;;;;;16.08;5.68;;;5.20;99.90;;;;;;4993864;28;20445;-79
2021/12/20 11:41:19;;;;;;;16.05;5.20;;;5.40;99.90;;;;;;5006327;28;20047;-80
2021/12/20 11:43:49;;;;;;;13.18;5.93;;;5.50;99.90;;;;;;5006171;28;20072;-80
2021/12/20 11:46:15;;;;;;;12.55;4.80;;;5.60;99.90;;;;;;5048828;28;20048;-82
2021/12/20 11:48:42;;;;;;;12.93;5.57;;;5.70;99.90;;;;;;5065190;28;20114;-81
2021/12/20 11:51:09;;;;;;;11.68;5.78;;;5.90;99.90;;;;;;5051928;28;20107;-81
2021/12/20 11:53:36;;;;;;;16.98;4.82;;;6.10;99.90;;;;;;5002497;28;20101;-81
2021/12/20 11:56:03;;;;;;;14.32;5.03;;;7.00;99.90;;;;;;5035484;28;20036;-80
2021/12/20 11:58:31;;;;;;;12.10;4.60;;;7.30;99.90;;;;;;5036713;28;20476;-80
2021/12/20 12:01:02;;;;;;;11.85;4.22;;;7.90;99.90;;;;;;5031992;28;20037;-80
2021/12/20 12:03:32;;;;;;;;;;;8.10;99.90;;;;;;5083594;28;20129;-82
2021/12/20 12:06:00;;;;;;;12.07;4.80;;;7.90;99.90;;;;;;5066196;28;19917;-81
2021/12/20 12:08:42;;;;;;;14.10;6.03;;;8.10;99.90;;;;;;5069000;28;20177;-81
2021/12/20 12:11:08;;;;;;;15.43;6.80;;;8.20;99.90;;;;;;5056591;28;20166;-81
2021/12/20 12:13:44;;;;;;;11.63;5.05;;;8.20;99.90;;;;;;5060363;28;20057;-80
2021/12/20 12:16:26;;;;;;;15.10;5.68;;;8.00;99.90;;;;;;5054023;28;20466;-81
2021/12/20 12:18:53;;;;;;;9.20;5.18;;;7.70;99.90;;;;;;5063528;28;20041;-81
2021/12/20 12:21:39;;;;;;;13.00;5.35;;;7.50;99.90;;;;;;5037580;28;20390;-81
2021/12/20 12:24:14;;;;;;;11.57;5.53;;;7.60;99.90;;;;;;5044272;28;20162;-81
2021/12/20 12:26:50;;;;;;;11.25;5.20;;;7.00;99.90;;;;;;5044143;28;20614;-81
2021/12/20 12:29:16;;;;;;;13.82;4.93;;;6.90;99.90;;;;;;5049194;28;20064;-81
2021/12/20 12:31:56;;;;;;;10.60;4.57;;;6.70;99.90;;;;;;5088038;28;20032;-81
2021/12/20 12:34:24;;;;;;;11.50;4.40;;;6.60;99.90;;;;;;5051398;28;20040;-81
2021/12/20 12:36:50;;;;;;;13.55;4.53;;;6.60;99.90;;;;;;5021235;28;20048;-81
2021/12/20 12:39:26;;;;;;;11.55;4.65;;;6.80;99.90;;;;;;5020865;28;20155;-79
2021/12/20 12:41:57;;;;;;;12.63;4.85;;;6.80;99.90;;;;;;5049820;28;20695;-81
2021/12/20 12:44:25;;;;;;;;;;;6.70;99.90;;;;;;5002540;28;20085;-81
2021/12/20 12:47:14;;;;;;;14.48;8.05;;;7.20;99.90;;;;;;5039711;28;20459;-81
2021/12/20 12:49:51;;;;;;;14.35;6.65;;;6.50;99.90;;;;;;5020691;28;20120;-81
2021/12/20 12:52:16;;;;;;;15.23;8.10;;;6.70;99.90;;;;;;5009721;28;20061;-81
2021/12/20 12:54:54;;;;;;;11.10;5.10;;;6.50;99.90;;;;;;5000556;28;20038;-81
2021/12/20 12:57:19;;;;;;;13.35;4.60;;;7.00;99.90;;;;;;5020427;28;20164;-81
2021/12/20 12:59:49;;;;;;;14.68;5.03;;;7.00;99.90;;;;;;4997016;28;20149;-81
2021/12/20 13:02:35;;;;;;;9.87;4.67;;;6.40;99.90;;;;;;5027587;28;20091;-81
2021/12/20 13:05:14;;;;;;;10.00;4.40;;;6.50;99.90;;;;;;5028664;28;20308;-81
2021/12/20 13:08:03;;;;;;;12.45;4.82;;;6.20;99.90;;;;;;4993507;28;20051;-79
2021/12/20 13:10:39;;;;;;;11.32;5.18;;;6.60;99.90;;;;;;4994616;28;20037;-81
2021/12/20 13:13:17;;;;;;;15.45;6.05;;;6.20;99.90;;;;;;5021112;28;20034;-81
2021/12/20 13:15:52;;;;;;;16.05;5.32;;;6.20;99.90;;;;;;5030243;28;20038;-81
2021/12/20 13:18:27;;;;;;;13.73;5.40;;;6.10;99.90;;;;;;4997667;28;20067;-82
2021/12/20 13:23:46;;;;;;;12.98;4.35;;;5.90;99.90;;;;;;4997600;28;20048;-80
2021/12/20 13:26:21;;;;;;;11.10;4.18;;;5.80;99.90;;;;;;4996381;28;20038;-79
2021/12/20 13:28:52;;;;;;;13.80;4.10;;;5.60;99.90;;;;;;5015101;28;20057;-79
2021/12/20 13:31:20;;;;;;;10.07;3.58;;;5.60;99.90;;;;;;4998986;28;20037;-79
2021/12/20 13:33:51;;;;;;;10.10;3.58;;;5.50;99.90;;;;;;5028210;28;20378;-79
2021/12/20 13:36:25;;;;;;;8.00;3.50;;;5.50;99.90;;;;;;5010623;28;20076;-79
2021/12/20 13:38:56;;;;;;;12.40;3.70;;;5.40;99.90;;;;;;5026678;28;20080;-77